Flag for Italy

Past Weather in Porto di Mazara del Vallo, Italy — Yesterday and Last 2 Weeks

Currently: 57 °F. Passing clouds. (Weather station: Palermo / Punta Raisi, Italy). See more current weather

Past Weather in Porto di Mazara del Vallo — Graph

°F

Porto di Mazara del Vallo Temperature Yesterday

Maximum temperature yesterday: 59 °F (at 2:20 pm)
Minimum temperature yesterday: 46 °F (at 3:50 am)
Average temperature yesterday: 53 °F

High & Low Weather Summary for the Past Weeks

 TemperatureHumidityPressure
High61 °F (Feb 13, 2:20 am)94% (Feb 13, 11:50 am)30.57 "Hg (Feb 13, 11:50 am)
Low41 °F (Feb 17, 5:20 am)37% (Feb 16, 4:50 am)29.86 "Hg (Feb 13, 1:50 pm)
Average53 °F74%30.32 "Hg
* Reported Feb 12 4:20 pm — Feb 27 4:20 pm, Porto di Mazara del Vallo. Weather by CustomWeather, © 2021

Note: Actual official high and low records may vary slightly from our data, if they occured in-between our weather recording intervals... More about our weather records

Porto di Mazara del Vallo Weather History for the Previous 24 Hours

Scroll right to see more
 ConditionsComfort  
Time TempWeatherWind HumidityBarometerVisibility
4:20 pm
Sat, Feb 27
57 °FPassing clouds.12 mph72%30.18 "HgN/A
3:50 pm57 °FSunny.12 mph72%30.18 "Hg10 mi
3:20 pm57 °FSunny.12 mph72%30.18 "Hg10 mi
2:50 pm57 °FPassing clouds.10 mph72%30.18 "HgN/A
2:20 pm59 °FPassing clouds.10 mph68%30.18 "HgN/A
1:50 pm57 °FPassing clouds.10 mph72%30.18 "HgN/A
1:20 pm57 °FPassing clouds.10 mph72%30.21 "HgN/A
12:50 pm57 °FPassing clouds.9 mph72%30.21 "HgN/A
12:20 pm57 °FPassing clouds.8 mph72%30.21 "HgN/A
11:50 am57 °FPassing clouds.5 mph77%30.24 "HgN/A
11:20 am55 °FPassing clouds.5 mph82%30.24 "HgN/A
10:50 am55 °FPassing clouds.3 mph82%30.24 "HgN/A
10:20 am55 °FPassing clouds.3 mph82%30.24 "Hg6 mi
9:50 am55 °FClear.2 mph82%30.24 "Hg5 mi
9:20 am54 °FClear.2 mph88%30.24 "Hg4 mi
8:50 am52 °FClear.3 mph88%30.24 "Hg4 mi
8:20 am50 °FClear.5 mph88%30.24 "Hg4 mi
7:50 am46 °FClear.3 mph93%30.24 "Hg4 mi
7:20 am48 °FPassing clouds.2 mph94%30.24 "Hg4 mi
6:50 am46 °FFog.2 mph93%30.21 "Hg2 mi
6:20 am48 °FFog.3 mph87%30.21 "Hg2 mi
5:50 am48 °FFog.3 mph94%30.21 "Hg3 mi
5:20 am50 °FFog.2 mph88%30.21 "Hg2 mi
4:50 am48 °FFog.2 mph94%30.21 "Hg2 mi
4:20 am48 °FFog.5 mph94%30.21 "Hg2 mi
3:50 am50 °FFog.3 mph88%30.21 "Hg2 mi
3:20 am48 °FFog.2 mph87%30.24 "Hg2 mi
2:50 am50 °FFog.2 mph88%30.24 "Hg3 mi
2:20 am48 °FFog.2 mph94%30.24 "Hg3 mi
1:50 am50 °FFog.5 mph88%30.24 "Hg3 mi
1:20 am50 °FPassing clouds.5 mph88%30.27 "Hg4 mi
12:50 am54 °FPassing clouds.2 mph82%30.27 "Hg4 mi
12:20 am54 °FOvercast.2 mph82%30.27 "Hg4 mi
11:50 pm
Fri, Feb 26
52 °FOvercast.3 mph88%30.27 "Hg4 mi
11:20 pm50 °FFog.3 mph94%30.27 "Hg3 mi
10:50 pm52 °FPassing clouds.2 mph88%30.27 "Hg4 mi
10:20 pm50 °FClear.3 mph88%30.30 "Hg5 mi
9:50 pm52 °FClear.3 mph82%30.24 "Hg6 mi
9:20 pm52 °FClear.5 mph82%30.30 "Hg6 mi
8:50 pm52 °FPassing clouds.3 mph88%30.30 "HgN/A
8:20 pm54 °FPassing clouds.5 mph88%30.30 "HgN/A
7:50 pm54 °FPassing clouds.7 mph88%30.30 "HgN/A
7:20 pm54 °FPassing clouds.7 mph88%30.30 "HgN/A
6:50 pm54 °FClear.7 mph88%30.30 "Hg10 mi
6:20 pm55 °FClear.8 mph82%30.30 "Hg10 mi
5:50 pm57 °FSunny.7 mph77%30.30 "Hg10 mi
5:20 pm57 °FSunny.8 mph77%30.30 "Hg10 mi
Weather by CustomWeather, © 2021

See weather overview